Aérodrome :
LOGIN :

S'inscrire | Disclaimer

   EN    FR    IT 

 










Légende :    VFR   VFR Marginal   IFR   IFR Intensif   IFR Très Intensif
Visi : 
Plafond : 
>= 8 km
>= 3000ft
5 à 8 km
1000 à 3000 ft
1500m à 5 km
500 à 1000 ft
800 à 1500m
200 à 500 ft
< 800m
< 200 ft
Symboles :   Orages  Brouillard  Fortes neiges  Fortes précipitations  Vent > 20 kt
SIGMETs :   Divers  Orages  Givrage  Turbulence  Onde Orograph.  Cendres Volcan.






- Altitude de l'aérodrome : 659 ft
- Code IATA : LYN


LFLY - Lyon Bron

DERNIER METAR :
  • 221000Z AUTO 03003KT 340V090 9999 FEW013 BKN033 OVC049 18/16 Q1018 TEMPO 4000 SHRA SCT035CB BKN040

METARs EXPIRÉS :
  • 220930Z AUTO 02003KT 340V050 9999 FEW012/// BKN029/// OVC040/// ///TCU 17/14 Q1018 TEMPO 4000 SHRA SCT035CB BKN045
  • 220900Z AUTO 02005KT 350V050 9999 -RA SCT021/// SCT027/// BKN034/// ///TCU 17/15 Q1018 NOSIG
  • 220830Z AUTO 36005KT 330V040 9999 -RA FEW033/// SCT049/// BKN072/// ///TCU 17/14 Q1018 NOSIG
  • 220800Z AUTO 01006KT 340V050 9999 -RA FEW022/// BKN034/// BKN052/// //////TCU 17/14 Q1018 NOSIG
  • 220730Z AUTO 35006KT 320V020 9999 FEW021/// SCT032/// BKN044/// //////TCU 18/15 Q1018 NOSIG
  • 220700Z AUTO 35003KT 9999 BKN032 BKN039 OVC049 18/15 Q1018 TEMPO FEW020TCU BKN022
  • 220630Z AUTO VRB03KT 9999 FEW033/// BKN042/// OVC048/// ///TCU 18/16 Q1018 BECMG BKN045
  • 220600Z AUTO 00000KT 9999 BKN041/// BKN047/// OVC056/// ///TCU 17/16 Q1018 BECMG BKN045
  • 220530Z AUTO 00000KT 9999 BKN041 OVC052 17/15 Q1018 NOSIG

TAF AMD TAF LFLY
Valide du 22 à 09h jusqu'au 23 à 06h UTC


220941Z 2209/2306 02006KT 9999 BKN040
TEMPO 2209/2211 -SHRA FEW011 FEW020TCU BKN022
TEMPO 2211/2218 4000 SHRA SCT035CB BKN040
PROB40
TEMPO 2212/2218 32015G25KT 2000 TSRA BKN013
PROB30
TEMPO 2218/2220 -SHRA FEW030TCU BKN033
PROB40
TEMPO 2304/2306 BKN014
ATIS : +33 4 72 15 87 96



MET'MAP, la Météo Aéronautique d'un coup d'oeil ! - Copyright ORBIFLY Décembre 2007 - Disclaimer

ORBIFLY MET'MAP TEAM :

Programmation & Développement : Alexandra Zaïnal
Sur une idée originale de : Baudouin d'Aumeries
Soutien technique & logistique : Manuel Goepfert
Assistance : Marc-Olivier Méhu




SOURCES & CREDITS :

   NOAA